sensor_id;sensor_type;location;lat;lon;timestamp;P1;durP1;ratioP1;P2;durP2;ratioP2
52948;SDS011;38812;50.942;3.644;2023-02-03T00:01:36;14.52;;;2.80;;
52948;SDS011;38812;50.942;3.644;2023-02-03T00:04:02;13.38;;;2.65;;
52948;SDS011;38812;50.942;3.644;2023-02-03T00:06:27;12.68;;;2.78;;
52948;SDS011;38812;50.942;3.644;2023-02-03T00:08:56;15.13;;;2.58;;
52948;SDS011;38812;50.942;3.644;2023-02-03T00:11:23;16.55;;;3.95;;
52948;SDS011;38812;50.942;3.644;2023-02-03T00:13:49;13.25;;;2.65;;
52948;SDS011;38812;50.942;3.644;2023-02-03T00:16:14;11.65;;;2.63;;
52948;SDS011;38812;50.942;3.644;2023-02-03T00:18:40;13.25;;;2.70;;
52948;SDS011;38812;50.942;3.644;2023-02-03T00:21:05;12.02;;;3.10;;
52948;SDS011;38812;50.942;3.644;2023-02-03T00:23:31;21.23;;;2.95;;
52948;SDS011;38812;50.942;3.644;2023-02-03T00:25:57;15.77;;;2.17;;
52948;SDS011;38812;50.942;3.644;2023-02-03T00:28:30;8.13;;;2.35;;
52948;SDS011;38812;50.942;3.644;2023-02-03T00:30:55;12.20;;;2.08;;
52948;SDS011;38812;50.942;3.644;2023-02-03T00:33:21;14.35;;;3.17;;
52948;SDS011;38812;50.942;3.644;2023-02-03T00:35:46;19.27;;;2.45;;
52948;SDS011;38812;50.942;3.644;2023-02-03T00:38:12;15.18;;;2.53;;
52948;SDS011;38812;50.942;3.644;2023-02-03T00:40:37;13.50;;;2.47;;
52948;SDS011;38812;50.942;3.644;2023-02-03T00:43:02;17.90;;;2.85;;
52948;SDS011;38812;50.942;3.644;2023-02-03T00:45:28;18.75;;;2.38;;
52948;SDS011;38812;50.942;3.644;2023-02-03T00:47:53;14.23;;;2.30;;
52948;SDS011;38812;50.942;3.644;2023-02-03T00:50:18;9.90;;;1.88;;
52948;SDS011;38812;50.942;3.644;2023-02-03T00:52:44;13.43;;;2.78;;
52948;SDS011;38812;50.942;3.644;2023-02-03T00:55:09;14.13;;;2.20;;
52948;SDS011;38812;50.942;3.644;2023-02-03T00:57:35;15.50;;;2.15;;
52948;SDS011;38812;50.942;3.644;2023-02-03T01:00:00;15.15;;;3.08;;
52948;SDS011;38812;50.942;3.644;2023-02-03T01:02:26;13.60;;;1.77;;
52948;SDS011;38812;50.942;3.644;2023-02-03T01:04:51;10.43;;;1.95;;
52948;SDS011;38812;50.942;3.644;2023-02-03T01:07:17;10.43;;;1.80;;
52948;SDS011;38812;50.942;3.644;2023-02-03T01:09:42;13.57;;;1.90;;
52948;SDS011;38812;50.942;3.644;2023-02-03T01:12:08;9.00;;;2.20;;
52948;SDS011;38812;50.942;3.644;2023-02-03T01:14:33;11.70;;;2.67;;
52948;SDS011;38812;50.942;3.644;2023-02-03T01:16:59;9.70;;;1.90;;
52948;SDS011;38812;50.942;3.644;2023-02-03T01:19:24;13.93;;;2.72;;
52948;SDS011;38812;50.942;3.644;2023-02-03T01:21:50;9.52;;;2.22;;
52948;SDS011;38812;50.942;3.644;2023-02-03T01:24:15;11.25;;;2.30;;
52948;SDS011;38812;50.942;3.644;2023-02-03T01:26:41;10.05;;;1.80;;
52948;SDS011;38812;50.942;3.644;2023-02-03T01:29:07;11.75;;;1.92;;
52948;SDS011;38812;50.942;3.644;2023-02-03T01:31:39;18.90;;;2.35;;
52948;SDS011;38812;50.942;3.644;2023-02-03T01:34:07;17.58;;;2.17;;
52948;SDS011;38812;50.942;3.644;2023-02-03T01:36:36;13.27;;;2.03;;
52948;SDS011;38812;50.942;3.644;2023-02-03T01:39:02;15.55;;;2.15;;
52948;SDS011;38812;50.942;3.644;2023-02-03T01:41:30;12.13;;;1.73;;
52948;SDS011;38812;50.942;3.644;2023-02-03T01:43:58;12.48;;;2.92;;
52948;SDS011;38812;50.942;3.644;2023-02-03T01:49:23;11.43;;;2.17;;
52948;SDS011;38812;50.942;3.644;2023-02-03T01:51:53;10.35;;;2.10;;
52948;SDS011;38812;50.942;3.644;2023-02-03T01:54:21;9.50;;;1.70;;
52948;SDS011;38812;50.942;3.644;2023-02-03T01:56:53;12.82;;;2.60;;
52948;SDS011;38812;50.942;3.644;2023-02-03T01:59:21;16.15;;;2.88;;
52948;SDS011;38812;50.942;3.644;2023-02-03T02:01:49;15.93;;;2.67;;
52948;SDS011;38812;50.942;3.644;2023-02-03T02:04:15;12.40;;;2.35;;
52948;SDS011;38812;50.942;3.644;2023-02-03T02:06:41;10.07;;;1.90;;
52948;SDS011;38812;50.942;3.644;2023-02-03T02:09:07;13.27;;;2.38;;
52948;SDS011;38812;50.942;3.644;2023-02-03T02:11:33;22.17;;;2.50;;
52948;SDS011;38812;50.942;3.644;2023-02-03T02:13:59;12.43;;;2.28;;
52948;SDS011;38812;50.942;3.644;2023-02-03T02:16:46;9.73;;;1.60;;
52948;SDS011;38812;50.942;3.644;2023-02-03T02:36:33;18.30;;;1.73;;
52948;SDS011;38812;50.942;3.644;2023-02-03T02:41:57;5.68;;;1.60;;
52948;SDS011;38812;50.942;3.644;2023-02-03T02:47:14;11.02;;;1.48;;
52948;SDS011;38812;50.942;3.644;2023-02-03T02:52:12;9.63;;;2.08;;
52948;SDS011;38812;50.942;3.644;2023-02-03T02:54:41;9.55;;;1.63;;
52948;SDS011;38812;50.942;3.644;2023-02-03T02:57:11;8.00;;;1.52;;
52948;SDS011;38812;50.942;3.644;2023-02-03T02:59:38;7.80;;;1.65;;
52948;SDS011;38812;50.942;3.644;2023-02-03T03:02:04;18.65;;;2.45;;
52948;SDS011;38812;50.942;3.644;2023-02-03T03:04:30;13.35;;;2.50;;
52948;SDS011;38812;50.942;3.644;2023-02-03T03:06:58;12.25;;;1.90;;
52948;SDS011;38812;50.942;3.644;2023-02-03T03:09:41;10.80;;;1.73;;
52948;SDS011;38812;50.942;3.644;2023-02-03T03:14:53;4.40;;;1.25;;
52948;SDS011;38812;50.942;3.644;2023-02-03T03:17:24;9.20;;;1.48;;
52948;SDS011;38812;50.942;3.644;2023-02-03T03:19:55;10.10;;;1.52;;
52948;SDS011;38812;50.942;3.644;2023-02-03T03:22:27;5.55;;;1.20;;
52948;SDS011;38812;50.942;3.644;2023-02-03T03:25:02;6.97;;;1.65;;
52948;SDS011;38812;50.942;3.644;2023-02-03T03:27:35;13.10;;;1.58;;
52948;SDS011;38812;50.942;3.644;2023-02-03T03:30:05;8.00;;;1.60;;
52948;SDS011;38812;50.942;3.644;2023-02-03T03:32:38;8.45;;;1.52;;
52948;SDS011;38812;50.942;3.644;2023-02-03T03:35:04;9.73;;;1.95;;
52948;SDS011;38812;50.942;3.644;2023-02-03T03:37:35;10.40;;;1.48;;
52948;SDS011;38812;50.942;3.644;2023-02-03T03:40:41;9.88;;;1.60;;
52948;SDS011;38812;50.942;3.644;2023-02-03T03:43:04;5.70;;;1.92;;
52948;SDS011;38812;50.942;3.644;2023-02-03T03:48:15;8.98;;;1.80;;
52948;SDS011;38812;50.942;3.644;2023-02-03T03:50:50;11.27;;;1.73;;
52948;SDS011;38812;50.942;3.644;2023-02-03T03:53:20;11.45;;;1.52;;
52948;SDS011;38812;50.942;3.644;2023-02-03T03:55:48;4.80;;;1.65;;
52948;SDS011;38812;50.942;3.644;2023-02-03T03:58:48;6.40;;;1.45;;
52948;SDS011;38812;50.942;3.644;2023-02-03T04:01:09;4.53;;;1.33;;
52948;SDS011;38812;50.942;3.644;2023-02-03T04:03:37;8.73;;;1.73;;
52948;SDS011;38812;50.942;3.644;2023-02-03T04:06:07;7.43;;;1.50;;
52948;SDS011;38812;50.942;3.644;2023-02-03T04:08:32;6.50;;;1.20;;
52948;SDS011;38812;50.942;3.644;2023-02-03T04:10:57;6.22;;;1.45;;
52948;SDS011;38812;50.942;3.644;2023-02-03T04:13:23;9.13;;;1.63;;
52948;SDS011;38812;50.942;3.644;2023-02-03T04:15:48;3.95;;;1.40;;
52948;SDS011;38812;50.942;3.644;2023-02-03T04:18:14;3.80;;;1.02;;
52948;SDS011;38812;50.942;3.644;2023-02-03T04:20:40;9.27;;;1.75;;
52948;SDS011;38812;50.942;3.644;2023-02-03T04:23:06;9.07;;;1.30;;
52948;SDS011;38812;50.942;3.644;2023-02-03T04:25:32;7.05;;;1.38;;
52948;SDS011;38812;50.942;3.644;2023-02-03T04:27:58;6.65;;;1.30;;
52948;SDS011;38812;50.942;3.644;2023-02-03T04:30:24;10.13;;;1.60;;
52948;SDS011;38812;50.942;3.644;2023-02-03T04:32:50;8.48;;;1.13;;
52948;SDS011;38812;50.942;3.644;2023-02-03T04:35:15;6.70;;;1.35;;
52948;SDS011;38812;50.942;3.644;2023-02-03T04:37:41;15.40;;;1.58;;
52948;SDS011;38812;50.942;3.644;2023-02-03T04:40:06;4.20;;;1.65;;
52948;SDS011;38812;50.942;3.644;2023-02-03T04:42:32;3.33;;;1.70;;
52948;SDS011;38812;50.942;3.644;2023-02-03T04:45:00;8.32;;;1.85;;
52948;SDS011;38812;50.942;3.644;2023-02-03T04:47:25;7.13;;;1.50;;
52948;SDS011;38812;50.942;3.644;2023-02-03T04:49:50;8.77;;;2.10;;
52948;SDS011;38812;50.942;3.644;2023-02-03T04:52:16;5.28;;;1.52;;
52948;SDS011;38812;50.942;3.644;2023-02-03T04:54:41;17.45;;;1.80;;
52948;SDS011;38812;50.942;3.644;2023-02-03T04:57:07;11.85;;;2.05;;
52948;SDS011;38812;50.942;3.644;2023-02-03T04:59:32;8.60;;;1.40;;
52948;SDS011;38812;50.942;3.644;2023-02-03T05:01:58;8.23;;;1.75;;
52948;SDS011;38812;50.942;3.644;2023-02-03T05:04:26;12.45;;;3.42;;
52948;SDS011;38812;50.942;3.644;2023-02-03T05:06:51;7.75;;;1.77;;
52948;SDS011;38812;50.942;3.644;2023-02-03T05:09:17;8.25;;;1.70;;
52948;SDS011;38812;50.942;3.644;2023-02-03T05:11:42;9.60;;;1.58;;
52948;SDS011;38812;50.942;3.644;2023-02-03T05:14:07;6.90;;;2.22;;
52948;SDS011;38812;50.942;3.644;2023-02-03T05:16:33;3.13;;;1.33;;
52948;SDS011;38812;50.942;3.644;2023-02-03T05:18:58;11.18;;;1.83;;
52948;SDS011;38812;50.942;3.644;2023-02-03T05:21:24;6.15;;;2.05;;
52948;SDS011;38812;50.942;3.644;2023-02-03T05:23:49;15.40;;;2.05;;
52948;SDS011;38812;50.942;3.644;2023-02-03T05:26:15;5.20;;;1.20;;
52948;SDS011;38812;50.942;3.644;2023-02-03T05:28:40;11.32;;;2.08;;
52948;SDS011;38812;50.942;3.644;2023-02-03T05:31:06;6.63;;;1.40;;
52948;SDS011;38812;50.942;3.644;2023-02-03T05:33:31;8.18;;;2.03;;
52948;SDS011;38812;50.942;3.644;2023-02-03T05:35:56;5.70;;;1.10;;
52948;SDS011;38812;50.942;3.644;2023-02-03T05:38:22;11.20;;;1.40;;
52948;SDS011;38812;50.942;3.644;2023-02-03T05:40:49;7.38;;;1.45;;
52948;SDS011;38812;50.942;3.644;2023-02-03T05:43:34;7.32;;;1.30;;
52948;SDS011;38812;50.942;3.644;2023-02-03T05:46:00;3.78;;;1.50;;
52948;SDS011;38812;50.942;3.644;2023-02-03T05:48:30;5.53;;;1.40;;
52948;SDS011;38812;50.942;3.644;2023-02-03T05:50:55;6.68;;;1.77;;
52948;SDS011;38812;50.942;3.644;2023-02-03T05:53:21;6.78;;;1.85;;
52948;SDS011;38812;50.942;3.644;2023-02-03T05:55:47;5.32;;;1.35;;
52948;SDS011;38812;50.942;3.644;2023-02-03T05:58:12;10.43;;;2.10;;
52948;SDS011;38812;50.942;3.644;2023-02-03T06:00:37;7.10;;;1.58;;
52948;SDS011;38812;50.942;3.644;2023-02-03T06:03:03;10.75;;;1.38;;
52948;SDS011;38812;50.942;3.644;2023-02-03T06:05:29;6.18;;;1.23;;
52948;SDS011;38812;50.942;3.644;2023-02-03T06:07:56;10.48;;;1.58;;
52948;SDS011;38812;50.942;3.644;2023-02-03T06:10:22;12.80;;;1.60;;
52948;SDS011;38812;50.942;3.644;2023-02-03T06:12:47;7.28;;;1.65;;
52948;SDS011;38812;50.942;3.644;2023-02-03T06:15:13;10.18;;;1.70;;
52948;SDS011;38812;50.942;3.644;2023-02-03T06:17:42;10.50;;;1.55;;
52948;SDS011;38812;50.942;3.644;2023-02-03T06:20:09;7.30;;;1.17;;
52948;SDS011;38812;50.942;3.644;2023-02-03T06:22:35;5.68;;;1.40;;
52948;SDS011;38812;50.942;3.644;2023-02-03T06:25:01;5.43;;;1.60;;
52948;SDS011;38812;50.942;3.644;2023-02-03T06:27:26;9.02;;;1.50;;
52948;SDS011;38812;50.942;3.644;2023-02-03T06:29:51;14.45;;;1.60;;
52948;SDS011;38812;50.942;3.644;2023-02-03T06:32:17;11.70;;;1.45;;
52948;SDS011;38812;50.942;3.644;2023-02-03T06:34:42;4.30;;;1.40;;
52948;SDS011;38812;50.942;3.644;2023-02-03T06:37:08;8.07;;;2.13;;
52948;SDS011;38812;50.942;3.644;2023-02-03T06:39:33;16.10;;;2.33;;
52948;SDS011;38812;50.942;3.644;2023-02-03T06:41:59;7.45;;;2.35;;
52948;SDS011;38812;50.942;3.644;2023-02-03T06:44:24;6.97;;;1.27;;
52948;SDS011;38812;50.942;3.644;2023-02-03T06:46:50;9.82;;;1.30;;
52948;SDS011;38812;50.942;3.644;2023-02-03T06:49:16;6.32;;;1.40;;
52948;SDS011;38812;50.942;3.644;2023-02-03T06:51:42;4.22;;;1.20;;
52948;SDS011;38812;50.942;3.644;2023-02-03T06:54:09;8.75;;;1.75;;
52948;SDS011;38812;50.942;3.644;2023-02-03T06:56:35;6.20;;;1.63;;
52948;SDS011;38812;50.942;3.644;2023-02-03T06:59:00;10.32;;;1.77;;
52948;SDS011;38812;50.942;3.644;2023-02-03T07:01:26;10.38;;;1.58;;
52948;SDS011;38812;50.942;3.644;2023-02-03T07:03:51;4.13;;;1.63;;
52948;SDS011;38812;50.942;3.644;2023-02-03T07:06:17;14.02;;;1.80;;
52948;SDS011;38812;50.942;3.644;2023-02-03T07:08:42;14.18;;;1.45;;
52948;SDS011;38812;50.942;3.644;2023-02-03T07:11:09;6.45;;;1.42;;
52948;SDS011;38812;50.942;3.644;2023-02-03T07:13:34;7.35;;;1.45;;
52948;SDS011;38812;50.942;3.644;2023-02-03T07:15:59;11.00;;;1.83;;
52948;SDS011;38812;50.942;3.644;2023-02-03T07:18:25;14.07;;;2.38;;
52948;SDS011;38812;50.942;3.644;2023-02-03T07:20:51;8.52;;;1.73;;
52948;SDS011;38812;50.942;3.644;2023-02-03T07:23:17;8.43;;;1.58;;
52948;SDS011;38812;50.942;3.644;2023-02-03T07:25:43;7.68;;;1.40;;
52948;SDS011;38812;50.942;3.644;2023-02-03T07:28:09;3.78;;;0.98;;
52948;SDS011;38812;50.942;3.644;2023-02-03T07:30:35;14.27;;;1.75;;
52948;SDS011;38812;50.942;3.644;2023-02-03T07:33:00;7.63;;;1.55;;
52948;SDS011;38812;50.942;3.644;2023-02-03T07:35:26;10.07;;;1.75;;
52948;SDS011;38812;50.942;3.644;2023-02-03T07:37:52;11.02;;;1.63;;
52948;SDS011;38812;50.942;3.644;2023-02-03T07:40:17;8.32;;;1.75;;
52948;SDS011;38812;50.942;3.644;2023-02-03T07:42:44;7.22;;;1.20;;
52948;SDS011;38812;50.942;3.644;2023-02-03T07:45:11;9.13;;;2.20;;
52948;SDS011;38812;50.942;3.644;2023-02-03T07:47:38;17.15;;;1.77;;
52948;SDS011;38812;50.942;3.644;2023-02-03T07:50:04;9.07;;;2.10;;
52948;SDS011;38812;50.942;3.644;2023-02-03T07:52:30;7.00;;;2.17;;
52948;SDS011;38812;50.942;3.644;2023-02-03T07:54:55;8.98;;;1.42;;
52948;SDS011;38812;50.942;3.644;2023-02-03T07:57:21;7.75;;;1.23;;
52948;SDS011;38812;50.942;3.644;2023-02-03T07:59:46;5.07;;;1.23;;
52948;SDS011;38812;50.942;3.644;2023-02-03T08:02:11;8.48;;;1.20;;
52948;SDS011;38812;50.942;3.644;2023-02-03T08:04:37;10.30;;;1.00;;
52948;SDS011;38812;50.942;3.644;2023-02-03T08:07:02;8.40;;;1.40;;
52948;SDS011;38812;50.942;3.644;2023-02-03T08:09:28;7.05;;;1.50;;
52948;SDS011;38812;50.942;3.644;2023-02-03T08:11:53;8.88;;;1.63;;
52948;SDS011;38812;50.942;3.644;2023-02-03T08:14:19;8.32;;;1.52;;
52948;SDS011;38812;50.942;3.644;2023-02-03T08:16:44;3.90;;;1.20;;
52948;SDS011;38812;50.942;3.644;2023-02-03T08:19:10;7.40;;;1.45;;
52948;SDS011;38812;50.942;3.644;2023-02-03T08:21:36;8.32;;;2.05;;
52948;SDS011;38812;50.942;3.644;2023-02-03T08:24:01;11.23;;;2.00;;
52948;SDS011;38812;50.942;3.644;2023-02-03T08:26:26;10.32;;;1.42;;
52948;SDS011;38812;50.942;3.644;2023-02-03T08:28:52;10.45;;;2.00;;
52948;SDS011;38812;50.942;3.644;2023-02-03T08:31:17;10.85;;;1.55;;
52948;SDS011;38812;50.942;3.644;2023-02-03T08:33:43;6.07;;;1.40;;
52948;SDS011;38812;50.942;3.644;2023-02-03T08:36:08;11.77;;;1.70;;
52948;SDS011;38812;50.942;3.644;2023-02-03T08:38:35;12.98;;;1.83;;
52948;SDS011;38812;50.942;3.644;2023-02-03T08:41:00;6.75;;;1.52;;
52948;SDS011;38812;50.942;3.644;2023-02-03T08:43:26;15.05;;;1.60;;
52948;SDS011;38812;50.942;3.644;2023-02-03T08:45:51;5.65;;;2.03;;
52948;SDS011;38812;50.942;3.644;2023-02-03T08:48:16;7.32;;;1.75;;
52948;SDS011;38812;50.942;3.644;2023-02-03T08:50:42;7.85;;;1.83;;
52948;SDS011;38812;50.942;3.644;2023-02-03T08:53:08;7.90;;;1.52;;
52948;SDS011;38812;50.942;3.644;2023-02-03T08:55:37;9.20;;;1.40;;
52948;SDS011;38812;50.942;3.644;2023-02-03T08:58:03;7.80;;;1.35;;
52948;SDS011;38812;50.942;3.644;2023-02-03T09:00:28;5.93;;;1.25;;
52948;SDS011;38812;50.942;3.644;2023-02-03T09:02:54;7.97;;;1.67;;
52948;SDS011;38812;50.942;3.644;2023-02-03T09:05:19;2.95;;;0.98;;
52948;SDS011;38812;50.942;3.644;2023-02-03T09:07:45;7.57;;;1.52;;
52948;SDS011;38812;50.942;3.644;2023-02-03T09:10:11;9.65;;;1.98;;
52948;SDS011;38812;50.942;3.644;2023-02-03T09:12:36;5.30;;;1.35;;
52948;SDS011;38812;50.942;3.644;2023-02-03T09:15:01;5.95;;;1.30;;
52948;SDS011;38812;50.942;3.644;2023-02-03T09:17:27;5.75;;;1.67;;
52948;SDS011;38812;50.942;3.644;2023-02-03T09:19:52;6.20;;;1.88;;
52948;SDS011;38812;50.942;3.644;2023-02-03T09:22:18;7.07;;;1.55;;
52948;SDS011;38812;50.942;3.644;2023-02-03T09:24:43;5.57;;;1.40;;
52948;SDS011;38812;50.942;3.644;2023-02-03T09:27:09;6.78;;;1.88;;
52948;SDS011;38812;50.942;3.644;2023-02-03T09:29:34;15.77;;;1.98;;
52948;SDS011;38812;50.942;3.644;2023-02-03T09:32:00;13.00;;;1.98;;
52948;SDS011;38812;50.942;3.644;2023-02-03T09:34:31;6.35;;;1.70;;
52948;SDS011;38812;50.942;3.644;2023-02-03T09:36:56;10.10;;;1.67;;
52948;SDS011;38812;50.942;3.644;2023-02-03T09:39:22;9.75;;;2.05;;
52948;SDS011;38812;50.942;3.644;2023-02-03T09:44:16;6.07;;;1.38;;
52948;SDS011;38812;50.942;3.644;2023-02-03T09:47:01;7.38;;;1.30;;
52948;SDS011;38812;50.942;3.644;2023-02-03T09:49:36;3.20;;;1.30;;
52948;SDS011;38812;50.942;3.644;2023-02-03T09:54:52;7.07;;;1.85;;
52948;SDS011;38812;50.942;3.644;2023-02-03T09:57:46;9.07;;;1.83;;
52948;SDS011;38812;50.942;3.644;2023-02-03T10:00:25;5.88;;;1.80;;
52948;SDS011;38812;50.942;3.644;2023-02-03T10:06:00;10.55;;;1.42;;
52948;SDS011;38812;50.942;3.644;2023-02-03T10:14:55;12.30;;;1.52;;
52948;SDS011;38812;50.942;3.644;2023-02-03T10:17:37;4.85;;;1.45;;
52948;SDS011;38812;50.942;3.644;2023-02-03T10:22:33;6.75;;;1.75;;
52948;SDS011;38812;50.942;3.644;2023-02-03T10:25:15;7.00;;;1.80;;
52948;SDS011;38812;50.942;3.644;2023-02-03T10:27:49;6.45;;;1.42;;
52948;SDS011;38812;50.942;3.644;2023-02-03T10:30:21;7.30;;;1.45;;
52948;SDS011;38812;50.942;3.644;2023-02-03T10:32:50;8.27;;;2.20;;
52948;SDS011;38812;50.942;3.644;2023-02-03T10:35:18;8.68;;;2.22;;
52948;SDS011;38812;50.942;3.644;2023-02-03T10:40:18;7.53;;;1.55;;
52948;SDS011;38812;50.942;3.644;2023-02-03T10:42:46;7.93;;;1.80;;
52948;SDS011;38812;50.942;3.644;2023-02-03T10:45:32;8.38;;;1.35;;
52948;SDS011;38812;50.942;3.644;2023-02-03T10:48:01;7.90;;;1.58;;
52948;SDS011;38812;50.942;3.644;2023-02-03T10:50:30;9.77;;;1.83;;
52948;SDS011;38812;50.942;3.644;2023-02-03T10:56:11;7.53;;;1.67;;
52948;SDS011;38812;50.942;3.644;2023-02-03T11:01:22;6.10;;;1.42;;
52948;SDS011;38812;50.942;3.644;2023-02-03T11:03:54;7.72;;;1.60;;
52948;SDS011;38812;50.942;3.644;2023-02-03T11:08:49;4.82;;;1.20;;
52948;SDS011;38812;50.942;3.644;2023-02-03T11:11:48;7.32;;;1.83;;
52948;SDS011;38812;50.942;3.644;2023-02-03T11:16:32;4.10;;;1.40;;
52948;SDS011;38812;50.942;3.644;2023-02-03T11:26:49;10.20;;;1.75;;
52948;SDS011;38812;50.942;3.644;2023-02-03T11:29:17;6.72;;;1.88;;
52948;SDS011;38812;50.942;3.644;2023-02-03T11:31:48;3.65;;;1.25;;
52948;SDS011;38812;50.942;3.644;2023-02-03T11:34:24;7.53;;;2.03;;
52948;SDS011;38812;50.942;3.644;2023-02-03T11:39:49;10.55;;;2.05;;
52948;SDS011;38812;50.942;3.644;2023-02-03T11:42:22;4.82;;;1.27;;
52948;SDS011;38812;50.942;3.644;2023-02-03T11:44:48;9.88;;;1.55;;
52948;SDS011;38812;50.942;3.644;2023-02-03T11:47:15;6.72;;;1.52;;
52948;SDS011;38812;50.942;3.644;2023-02-03T11:49:57;10.45;;;2.20;;
52948;SDS011;38812;50.942;3.644;2023-02-03T11:58:02;8.80;;;2.42;;
52948;SDS011;38812;50.942;3.644;2023-02-03T12:00:42;3.38;;;1.42;;
52948;SDS011;38812;50.942;3.644;2023-02-03T12:03:40;4.88;;;1.13;;
52948;SDS011;38812;50.942;3.644;2023-02-03T12:30:31;4.78;;;1.92;;
52948;SDS011;38812;50.942;3.644;2023-02-03T12:33:03;8.32;;;2.13;;
52948;SDS011;38812;50.942;3.644;2023-02-03T12:35:38;12.63;;;1.95;;
52948;SDS011;38812;50.942;3.644;2023-02-03T12:41:07;6.18;;;1.95;;
52948;SDS011;38812;50.942;3.644;2023-02-03T12:43:39;10.10;;;1.80;;
52948;SDS011;38812;50.942;3.644;2023-02-03T12:46:08;10.98;;;1.98;;
52948;SDS011;38812;50.942;3.644;2023-02-03T12:48:44;5.70;;;2.78;;
52948;SDS011;38812;50.942;3.644;2023-02-03T12:51:59;4.25;;;1.60;;
52948;SDS011;38812;50.942;3.644;2023-02-03T12:54:20;7.68;;;1.75;;
52948;SDS011;38812;50.942;3.644;2023-02-03T12:57:24;3.72;;;1.40;;
52948;SDS011;38812;50.942;3.644;2023-02-03T12:59:55;5.90;;;1.65;;
52948;SDS011;38812;50.942;3.644;2023-02-03T13:02:47;9.73;;;2.35;;
52948;SDS011;38812;50.942;3.644;2023-02-03T13:11:10;4.80;;;1.77;;
52948;SDS011;38812;50.942;3.644;2023-02-03T13:13:52;5.80;;;1.85;;
52948;SDS011;38812;50.942;3.644;2023-02-03T13:16:22;8.55;;;1.80;;
52948;SDS011;38812;50.942;3.644;2023-02-03T13:18:59;9.83;;;1.97;;
52948;SDS011;38812;50.942;3.644;2023-02-03T13:21:30;10.90;;;1.92;;
52948;SDS011;38812;50.942;3.644;2023-02-03T13:23:56;8.40;;;1.67;;
52948;SDS011;38812;50.942;3.644;2023-02-03T13:42:52;6.10;;;1.77;;
52948;SDS011;38812;50.942;3.644;2023-02-03T13:48:04;8.73;;;1.25;;
52948;SDS011;38812;50.942;3.644;2023-02-03T13:50:32;4.43;;;1.65;;
52948;SDS011;38812;50.942;3.644;2023-02-03T13:52:59;7.95;;;1.23;;
52948;SDS011;38812;50.942;3.644;2023-02-03T13:55:34;4.25;;;1.40;;
52948;SDS011;38812;50.942;3.644;2023-02-03T13:58:03;6.35;;;1.42;;
52948;SDS011;38812;50.942;3.644;2023-02-03T14:03:20;2.67;;;1.20;;
52948;SDS011;38812;50.942;3.644;2023-02-03T14:06:03;6.43;;;1.42;;
52948;SDS011;38812;50.942;3.644;2023-02-03T14:16:35;3.28;;;1.55;;
52948;SDS011;38812;50.942;3.644;2023-02-03T14:19:03;6.13;;;1.10;;
52948;SDS011;38812;50.942;3.644;2023-02-03T14:21:37;3.00;;;1.25;;
52948;SDS011;38812;50.942;3.644;2023-02-03T14:24:04;3.67;;;1.23;;
52948;SDS011;38812;50.942;3.644;2023-02-03T14:26:34;3.63;;;1.50;;
52948;SDS011;38812;50.942;3.644;2023-02-03T14:29:03;4.05;;;1.10;;
52948;SDS011;38812;50.942;3.644;2023-02-03T14:31:30;4.55;;;1.35;;
52948;SDS011;38812;50.942;3.644;2023-02-03T14:34:00;7.75;;;1.90;;
52948;SDS011;38812;50.942;3.644;2023-02-03T14:49:39;6.63;;;1.42;;
52948;SDS011;38812;50.942;3.644;2023-02-03T14:52:19;7.28;;;1.58;;
52948;SDS011;38812;50.942;3.644;2023-02-03T14:57:39;7.10;;;2.17;;
52948;SDS011;38812;50.942;3.644;2023-02-03T15:00:24;14.05;;;1.85;;
52948;SDS011;38812;50.942;3.644;2023-02-03T15:05:43;6.78;;;1.73;;
52948;SDS011;38812;50.942;3.644;2023-02-03T15:10:57;8.35;;;1.55;;
52948;SDS011;38812;50.942;3.644;2023-02-03T15:15:54;6.05;;;2.20;;
52948;SDS011;38812;50.942;3.644;2023-02-03T15:18:26;3.42;;;1.33;;
52948;SDS011;38812;50.942;3.644;2023-02-03T15:20:57;3.13;;;1.30;;
52948;SDS011;38812;50.942;3.644;2023-02-03T15:23:27;3.45;;;1.67;;
52948;SDS011;38812;50.942;3.644;2023-02-03T15:28:24;9.68;;;1.50;;
52948;SDS011;38812;50.942;3.644;2023-02-03T15:31:13;4.78;;;1.63;;
52948;SDS011;38812;50.942;3.644;2023-02-03T15:33:46;4.82;;;2.22;;
52948;SDS011;38812;50.942;3.644;2023-02-03T15:36:17;9.07;;;3.15;;
52948;SDS011;38812;50.942;3.644;2023-02-03T15:38:55;4.07;;;1.50;;
52948;SDS011;38812;50.942;3.644;2023-02-03T15:41:30;4.68;;;1.67;;
52948;SDS011;38812;50.942;3.644;2023-02-03T15:43:57;4.32;;;1.58;;
52948;SDS011;38812;50.942;3.644;2023-02-03T15:46:37;6.03;;;2.72;;
52948;SDS011;38812;50.942;3.644;2023-02-03T15:49:09;5.03;;;1.65;;
52948;SDS011;38812;50.942;3.644;2023-02-03T15:54:42;5.78;;;1.85;;
52948;SDS011;38812;50.942;3.644;2023-02-03T15:57:19;5.90;;;1.60;;
52948;SDS011;38812;50.942;3.644;2023-02-03T15:59:51;5.07;;;2.05;;
52948;SDS011;38812;50.942;3.644;2023-02-03T16:02:30;10.10;;;2.05;;
52948;SDS011;38812;50.942;3.644;2023-02-03T16:05:04;10.63;;;2.00;;
52948;SDS011;38812;50.942;3.644;2023-02-03T16:07:46;6.65;;;1.83;;
52948;SDS011;38812;50.942;3.644;2023-02-03T16:10:25;5.80;;;2.05;;
52948;SDS011;38812;50.942;3.644;2023-02-03T16:18:32;3.47;;;1.75;;
52948;SDS011;38812;50.942;3.644;2023-02-03T16:21:00;5.65;;;2.00;;
52948;SDS011;38812;50.942;3.644;2023-02-03T16:23:26;5.97;;;2.67;;
52948;SDS011;38812;50.942;3.644;2023-02-03T16:26:13;10.23;;;2.65;;
52948;SDS011;38812;50.942;3.644;2023-02-03T16:28:43;11.48;;;2.95;;
52948;SDS011;38812;50.942;3.644;2023-02-03T16:31:39;7.03;;;2.30;;
52948;SDS011;38812;50.942;3.644;2023-02-03T16:34:27;8.45;;;2.80;;
52948;SDS011;38812;50.942;3.644;2023-02-03T16:37:33;6.35;;;2.53;;
52948;SDS011;38812;50.942;3.644;2023-02-03T16:40:25;6.22;;;2.50;;
52948;SDS011;38812;50.942;3.644;2023-02-03T16:43:11;8.10;;;2.88;;
52948;SDS011;38812;50.942;3.644;2023-02-03T16:45:56;8.70;;;2.60;;
52948;SDS011;38812;50.942;3.644;2023-02-03T16:48:41;13.27;;;3.53;;
52948;SDS011;38812;50.942;3.644;2023-02-03T16:51:25;5.38;;;2.95;;
52948;SDS011;38812;50.942;3.644;2023-02-03T16:53:57;12.38;;;3.10;;
52948;SDS011;38812;50.942;3.644;2023-02-03T16:56:22;6.65;;;3.33;;
52948;SDS011;38812;50.942;3.644;2023-02-03T16:58:48;10.18;;;3.83;;
52948;SDS011;38812;50.942;3.644;2023-02-03T17:01:13;14.50;;;4.10;;
52948;SDS011;38812;50.942;3.644;2023-02-03T17:03:39;12.80;;;3.70;;
52948;SDS011;38812;50.942;3.644;2023-02-03T17:06:05;12.57;;;4.13;;
52948;SDS011;38812;50.942;3.644;2023-02-03T17:08:33;17.10;;;3.53;;
52948;SDS011;38812;50.942;3.644;2023-02-03T17:11:05;10.48;;;3.45;;
52948;SDS011;38812;50.942;3.644;2023-02-03T17:13:33;11.25;;;4.43;;
52948;SDS011;38812;50.942;3.644;2023-02-03T17:16:00;15.80;;;4.70;;
52948;SDS011;38812;50.942;3.644;2023-02-03T17:18:31;10.00;;;3.80;;
52948;SDS011;38812;50.942;3.644;2023-02-03T17:21:02;13.57;;;4.35;;
52948;SDS011;38812;50.942;3.644;2023-02-03T17:23:29;6.97;;;3.55;;
52948;SDS011;38812;50.942;3.644;2023-02-03T17:25:55;13.20;;;4.07;;
52948;SDS011;38812;50.942;3.644;2023-02-03T17:28:21;12.73;;;3.60;;
52948;SDS011;38812;50.942;3.644;2023-02-03T17:30:54;16.92;;;5.15;;
52948;SDS011;38812;50.942;3.644;2023-02-03T17:33:23;20.10;;;6.47;;
52948;SDS011;38812;50.942;3.644;2023-02-03T17:35:58;18.35;;;5.00;;
52948;SDS011;38812;50.942;3.644;2023-02-03T17:38:25;21.88;;;5.50;;
52948;SDS011;38812;50.942;3.644;2023-02-03T17:40:50;17.52;;;6.03;;
52948;SDS011;38812;50.942;3.644;2023-02-03T17:43:16;18.83;;;6.78;;
52948;SDS011;38812;50.942;3.644;2023-02-03T17:45:41;24.33;;;5.70;;
52948;SDS011;38812;50.942;3.644;2023-02-03T17:48:07;13.25;;;7.68;;
52948;SDS011;38812;50.942;3.644;2023-02-03T17:50:33;20.25;;;7.25;;
52948;SDS011;38812;50.942;3.644;2023-02-03T17:52:58;18.65;;;7.03;;
52948;SDS011;38812;50.942;3.644;2023-02-03T17:55:24;16.60;;;5.57;;